sensor_id;sensor_type;location;lat;lon;timestamp;pressure;altitude;pressure_sealevel;temperature;humidity
85735;BME280;76179;42.316;22.856;2024-02-23T00:00:26;94259.22;;;6.36;66.77
85735;BME280;76179;42.316;22.856;2024-02-23T00:02:51;94245.78;;;6.29;66.93
85735;BME280;76179;42.316;22.856;2024-02-23T00:05:19;94258.78;;;6.41;66.56
85735;BME280;76179;42.316;22.856;2024-02-23T00:07:44;94249.22;;;6.33;66.60
85735;BME280;76179;42.316;22.856;2024-02-23T00:10:09;94245.09;;;6.25;66.52
85735;BME280;76179;42.316;22.856;2024-02-23T00:12:35;94256.25;;;6.27;66.96
85735;BME280;76179;42.316;22.856;2024-02-23T00:15:00;94248.19;;;6.23;67.36
85735;BME280;76179;42.316;22.856;2024-02-23T00:17:26;94247.13;;;6.17;67.44
85735;BME280;76179;42.316;22.856;2024-02-23T00:19:51;94239.00;;;6.17;66.83
85735;BME280;76179;42.316;22.856;2024-02-23T00:22:18;94241.56;;;6.28;67.03
85735;BME280;76179;42.316;22.856;2024-02-23T00:24:43;94242.28;;;6.32;67.23
85735;BME280;76179;42.316;22.856;2024-02-23T00:27:09;94240.44;;;6.25;67.00
85735;BME280;76179;42.316;22.856;2024-02-23T00:29:34;94243.91;;;6.26;67.26
85735;BME280;76179;42.316;22.856;2024-02-23T00:32:00;94235.38;;;6.27;67.24
85735;BME280;76179;42.316;22.856;2024-02-23T00:34:26;94243.00;;;6.36;68.35
85735;BME280;76179;42.316;22.856;2024-02-23T00:36:51;94232.28;;;6.29;69.24
85735;BME280;76179;42.316;22.856;2024-02-23T00:39:16;94235.72;;;6.33;69.00
85735;BME280;76179;42.316;22.856;2024-02-23T00:41:42;94242.66;;;6.34;69.50
85735;BME280;76179;42.316;22.856;2024-02-23T00:44:07;94223.78;;;6.30;70.09
85735;BME280;76179;42.316;22.856;2024-02-23T00:46:33;94220.69;;;6.28;71.09
85735;BME280;76179;42.316;22.856;2024-02-23T00:48:59;94215.78;;;6.19;71.62
85735;BME280;76179;42.316;22.856;2024-02-23T00:51:24;94215.28;;;6.28;71.24
85735;BME280;76179;42.316;22.856;2024-02-23T00:53:49;94216.47;;;6.27;72.49
85735;BME280;76179;42.316;22.856;2024-02-23T00:56:15;94204.03;;;6.33;72.13
85735;BME280;76179;42.316;22.856;2024-02-23T00:58:40;94216.81;;;6.29;72.89
85735;BME280;76179;42.316;22.856;2024-02-23T01:01:06;94216.38;;;6.34;72.88
85735;BME280;76179;42.316;22.856;2024-02-23T01:03:31;94202.41;;;6.39;72.40
85735;BME280;76179;42.316;22.856;2024-02-23T01:05:57;94196.53;;;6.44;71.58
85735;BME280;76179;42.316;22.856;2024-02-23T01:08:22;94202.41;;;6.39;72.20
85735;BME280;76179;42.316;22.856;2024-02-23T01:10:48;94193.16;;;6.37;72.10
85735;BME280;76179;42.316;22.856;2024-02-23T01:13:13;94204.63;;;6.44;71.45
85735;BME280;76179;42.316;22.856;2024-02-23T01:15:39;94195.97;;;6.30;72.37
85735;BME280;76179;42.316;22.856;2024-02-23T01:18:04;94200.63;;;6.29;72.75
85735;BME280;76179;42.316;22.856;2024-02-23T01:20:34;94195.16;;;6.33;73.02
85735;BME280;76179;42.316;22.856;2024-02-23T01:22:59;94195.59;;;6.28;72.81
85735;BME280;76179;42.316;22.856;2024-02-23T01:25:25;94188.94;;;6.36;72.55
85735;BME280;76179;42.316;22.856;2024-02-23T01:27:50;94197.38;;;6.41;72.34
85735;BME280;76179;42.316;22.856;2024-02-23T01:30:16;94186.59;;;6.38;72.32
85735;BME280;76179;42.316;22.856;2024-02-23T01:32:42;94187.66;;;6.44;72.05
85735;BME280;76179;42.316;22.856;2024-02-23T01:35:07;94181.16;;;6.41;72.31
85735;BME280;76179;42.316;22.856;2024-02-23T01:37:34;94176.06;;;6.43;71.83
85735;BME280;76179;42.316;22.856;2024-02-23T01:39:59;94178.75;;;6.47;71.20
85735;BME280;76179;42.316;22.856;2024-02-23T01:42:25;94179.00;;;6.56;71.12
85735;BME280;76179;42.316;22.856;2024-02-23T01:44:51;94173.09;;;6.61;70.66
85735;BME280;76179;42.316;22.856;2024-02-23T01:47:17;94170.13;;;6.55;70.69
85735;BME280;76179;42.316;22.856;2024-02-23T01:49:43;94162.78;;;6.56;70.14
85735;BME280;76179;42.316;22.856;2024-02-23T01:52:10;94162.69;;;6.60;69.66
85735;BME280;76179;42.316;22.856;2024-02-23T01:54:36;94161.63;;;6.53;69.95
85735;BME280;76179;42.316;22.856;2024-02-23T01:57:01;94160.47;;;6.54;70.32
85735;BME280;76179;42.316;22.856;2024-02-23T01:59:27;94157.75;;;6.54;69.43
85735;BME280;76179;42.316;22.856;2024-02-23T02:01:53;94159.69;;;6.54;69.71
85735;BME280;76179;42.316;22.856;2024-02-23T02:04:18;94149.66;;;6.54;69.45
85735;BME280;76179;42.316;22.856;2024-02-23T02:06:45;94150.66;;;6.41;69.73
85735;BME280;76179;42.316;22.856;2024-02-23T02:09:11;94145.25;;;6.41;69.76
85735;BME280;76179;42.316;22.856;2024-02-23T02:11:47;94155.47;;;6.53;68.99
85735;BME280;76179;42.316;22.856;2024-02-23T02:14:12;94141.66;;;6.47;69.75
85735;BME280;76179;42.316;22.856;2024-02-23T02:16:38;94138.59;;;6.45;69.55
85735;BME280;76179;42.316;22.856;2024-02-23T02:19:04;94144.00;;;6.45;69.31
85735;BME280;76179;42.316;22.856;2024-02-23T02:21:36;94134.03;;;6.42;69.34
85735;BME280;76179;42.316;22.856;2024-02-23T02:24:25;94135.53;;;6.43;69.34
85735;BME280;76179;42.316;22.856;2024-02-23T02:26:50;94141.25;;;6.49;68.82
85735;BME280;76179;42.316;22.856;2024-02-23T02:29:16;94134.34;;;6.44;69.12
85735;BME280;76179;42.316;22.856;2024-02-23T02:31:41;94150.06;;;6.53;68.80
85735;BME280;76179;42.316;22.856;2024-02-23T02:34:06;94145.50;;;6.50;68.60
85735;BME280;76179;42.316;22.856;2024-02-23T02:36:32;94140.88;;;6.47;68.92
85735;BME280;76179;42.316;22.856;2024-02-23T02:38:57;94146.59;;;6.52;68.55
85735;BME280;76179;42.316;22.856;2024-02-23T02:41:28;94149.66;;;6.54;68.39
85735;BME280;76179;42.316;22.856;2024-02-23T02:43:54;94160.94;;;6.49;68.31
85735;BME280;76179;42.316;22.856;2024-02-23T02:46:20;94146.03;;;6.38;68.28
85735;BME280;76179;42.316;22.856;2024-02-23T02:48:45;94152.72;;;6.30;69.50
85735;BME280;76179;42.316;22.856;2024-02-23T02:51:14;94148.75;;;6.38;69.32
85735;BME280;76179;42.316;22.856;2024-02-23T02:53:39;94151.09;;;6.36;68.86
85735;BME280;76179;42.316;22.856;2024-02-23T02:56:07;94147.41;;;6.26;68.84
85735;BME280;76179;42.316;22.856;2024-02-23T02:58:42;94138.00;;;6.07;69.99
85735;BME280;76179;42.316;22.856;2024-02-23T03:01:10;94146.09;;;6.07;70.24
85735;BME280;76179;42.316;22.856;2024-02-23T03:03:38;94137.69;;;6.02;70.88
85735;BME280;76179;42.316;22.856;2024-02-23T03:06:04;94141.94;;;6.03;70.97
85735;BME280;76179;42.316;22.856;2024-02-23T03:08:31;94146.16;;;6.04;71.55
85735;BME280;76179;42.316;22.856;2024-02-23T03:10:59;94150.72;;;6.10;71.40
85735;BME280;76179;42.316;22.856;2024-02-23T03:13:24;94137.31;;;6.03;70.97
85735;BME280;76179;42.316;22.856;2024-02-23T03:15:52;94149.38;;;5.95;71.32
85735;BME280;76179;42.316;22.856;2024-02-23T03:18:21;94140.84;;;5.97;72.07
85735;BME280;76179;42.316;22.856;2024-02-23T03:20:46;94134.34;;;5.94;71.80
85735;BME280;76179;42.316;22.856;2024-02-23T03:23:11;94136.34;;;5.87;72.54
85735;BME280;76179;42.316;22.856;2024-02-23T03:25:37;94144.75;;;5.96;71.85
85735;BME280;76179;42.316;22.856;2024-02-23T03:28:02;94133.28;;;5.85;71.95
85735;BME280;76179;42.316;22.856;2024-02-23T03:30:28;94141.59;;;5.97;72.50
85735;BME280;76179;42.316;22.856;2024-02-23T03:32:53;94141.59;;;5.97;71.94
85735;BME280;76179;42.316;22.856;2024-02-23T03:35:19;94136.31;;;5.90;71.22
85735;BME280;76179;42.316;22.856;2024-02-23T03:37:44;94152.00;;;5.99;71.69
85735;BME280;76179;42.316;22.856;2024-02-23T03:40:10;94153.44;;;6.07;71.49
85735;BME280;76179;42.316;22.856;2024-02-23T03:42:36;94143.47;;;6.04;71.28
85735;BME280;76179;42.316;22.856;2024-02-23T03:45:02;94149.38;;;5.95;71.88
85735;BME280;76179;42.316;22.856;2024-02-23T03:47:27;94146.16;;;6.04;71.09
85735;BME280;76179;42.316;22.856;2024-02-23T03:49:54;94152.38;;;6.01;71.00
85735;BME280;76179;42.316;22.856;2024-02-23T03:52:19;94151.66;;;5.97;71.13
85735;BME280;76179;42.316;22.856;2024-02-23T03:54:44;94142.47;;;5.91;71.69
85735;BME280;76179;42.316;22.856;2024-02-23T03:57:10;94152.41;;;5.97;71.24
85735;BME280;76179;42.316;22.856;2024-02-23T03:59:36;94142.34;;;6.01;71.15
85735;BME280;76179;42.316;22.856;2024-02-23T04:02:03;94143.22;;;5.95;71.13
85735;BME280;76179;42.316;22.856;2024-02-23T04:04:29;94139.38;;;5.92;71.50
85735;BME280;76179;42.316;22.856;2024-02-23T04:06:54;94151.22;;;6.02;71.10
85735;BME280;76179;42.316;22.856;2024-02-23T04:09:19;94141.97;;;5.99;70.76
85735;BME280;76179;42.316;22.856;2024-02-23T04:11:47;94139.75;;;5.94;70.80
85735;BME280;76179;42.316;22.856;2024-02-23T04:14:12;94130.13;;;5.90;70.65
85735;BME280;76179;42.316;22.856;2024-02-23T04:16:38;94133.63;;;5.87;71.41
85735;BME280;76179;42.316;22.856;2024-02-23T04:19:03;94139.75;;;5.94;70.84
85735;BME280;76179;42.316;22.856;2024-02-23T04:21:28;94138.66;;;5.88;70.58
85735;BME280;76179;42.316;22.856;2024-02-23T04:23:54;94131.34;;;5.85;70.89
85735;BME280;76179;42.316;22.856;2024-02-23T04:26:19;94135.19;;;5.88;69.90
85735;BME280;76179;42.316;22.856;2024-02-23T04:28:45;94139.53;;;5.78;70.48
85735;BME280;76179;42.316;22.856;2024-02-23T04:31:10;94151.88;;;5.79;71.03
85735;BME280;76179;42.316;22.856;2024-02-23T04:33:36;94148.44;;;5.75;70.75
85735;BME280;76179;42.316;22.856;2024-02-23T04:36:02;94145.84;;;5.68;71.40
85735;BME280;76179;42.316;22.856;2024-02-23T04:38:29;94135.13;;;5.61;71.67
85735;BME280;76179;42.316;22.856;2024-02-23T04:40:54;94140.88;;;5.63;71.82
85735;BME280;76179;42.316;22.856;2024-02-23T04:43:20;94140.81;;;5.66;70.57
85735;BME280;76179;42.316;22.856;2024-02-23T04:45:45;94149.41;;;5.58;71.27
85735;BME280;76179;42.316;22.856;2024-02-23T04:48:10;94152.53;;;5.56;71.34
85735;BME280;76179;42.316;22.856;2024-02-23T04:50:36;94152.88;;;5.58;71.18
85735;BME280;76179;42.316;22.856;2024-02-23T04:53:02;94140.25;;;5.52;71.93
85735;BME280;76179;42.316;22.856;2024-02-23T04:55:27;94138.38;;;5.49;72.14
85735;BME280;76179;42.316;22.856;2024-02-23T04:57:52;94138.75;;;5.47;72.35
85735;BME280;76179;42.316;22.856;2024-02-23T05:00:18;94151.03;;;5.52;73.00
85735;BME280;76179;42.316;22.856;2024-02-23T05:02:44;94145.63;;;5.52;73.43
85735;BME280;76179;42.316;22.856;2024-02-23T05:05:10;94147.91;;;5.57;73.04
85735;BME280;76179;42.316;22.856;2024-02-23T05:07:35;94144.47;;;5.53;72.59
85735;BME280;76179;42.316;22.856;2024-02-23T05:10:01;94144.53;;;5.49;72.71
85735;BME280;76179;42.316;22.856;2024-02-23T05:12:26;94148.34;;;5.52;72.62
85735;BME280;76179;42.316;22.856;2024-02-23T05:14:52;94151.41;;;5.54;72.94
85735;BME280;76179;42.316;22.856;2024-02-23T05:17:17;94156.91;;;5.47;72.95
85735;BME280;76179;42.316;22.856;2024-02-23T05:19:43;94140.81;;;5.36;74.44
85735;BME280;76179;42.316;22.856;2024-02-23T05:22:08;94155.34;;;5.46;73.48
85735;BME280;76179;42.316;22.856;2024-02-23T05:24:34;94147.66;;;5.44;73.81
85735;BME280;76179;42.316;22.856;2024-02-23T05:26:59;94147.16;;;5.56;73.76
85735;BME280;76179;42.316;22.856;2024-02-23T05:29:27;94143.03;;;5.45;73.36
85735;BME280;76179;42.316;22.856;2024-02-23T05:31:52;94146.13;;;5.43;73.80
85735;BME280;76179;42.316;22.856;2024-02-23T05:34:18;94157.66;;;5.47;73.01
85735;BME280;76179;42.316;22.856;2024-02-23T05:36:45;94154.22;;;5.43;74.26
85735;BME280;76179;42.316;22.856;2024-02-23T05:39:11;94151.88;;;5.45;74.77
85735;BME280;76179;42.316;22.856;2024-02-23T05:41:38;94145.56;;;5.59;74.35
85735;BME280;76179;42.316;22.856;2024-02-23T05:44:04;94153.56;;;5.66;73.80
85735;BME280;76179;42.316;22.856;2024-02-23T05:46:34;94162.31;;;5.77;73.38
85735;BME280;76179;42.316;22.856;2024-02-23T05:49:00;94172.25;;;5.84;73.50
85735;BME280;76179;42.316;22.856;2024-02-23T05:51:27;94172.94;;;5.91;72.84
85735;BME280;76179;42.316;22.856;2024-02-23T05:53:54;94178.63;;;6.00;72.96
85735;BME280;76179;42.316;22.856;2024-02-23T05:56:19;94185.16;;;6.03;73.01
85735;BME280;76179;42.316;22.856;2024-02-23T05:58:45;94183.22;;;6.03;72.91
85735;BME280;76179;42.316;22.856;2024-02-23T06:01:10;94186.22;;;6.09;72.54
85735;BME280;76179;42.316;22.856;2024-02-23T06:03:35;94194.59;;;6.18;72.50
85735;BME280;76179;42.316;22.856;2024-02-23T06:06:01;94177.53;;;6.25;72.70
85735;BME280;76179;42.316;22.856;2024-02-23T06:08:26;94190.13;;;6.35;72.01
85735;BME280;76179;42.316;22.856;2024-02-23T06:10:51;94184.63;;;6.42;71.65
85735;BME280;76179;42.316;22.856;2024-02-23T06:13:18;94183.78;;;6.45;71.75
85735;BME280;76179;42.316;22.856;2024-02-23T06:15:43;94188.63;;;6.57;71.39
85735;BME280;76179;42.316;22.856;2024-02-23T06:18:09;94191.94;;;6.68;71.08
85735;BME280;76179;42.316;22.856;2024-02-23T06:20:34;94191.41;;;6.77;70.55
85735;BME280;76179;42.316;22.856;2024-02-23T06:22:59;94199.03;;;6.82;70.31
85735;BME280;76179;42.316;22.856;2024-02-23T06:25:25;94193.53;;;6.89;70.06
85735;BME280;76179;42.316;22.856;2024-02-23T06:27:50;94195.78;;;6.94;69.46
85735;BME280;76179;42.316;22.856;2024-02-23T06:30:15;94192.53;;;7.03;69.12
85735;BME280;76179;42.316;22.856;2024-02-23T06:32:41;94200.13;;;7.11;68.91
85735;BME280;76179;42.316;22.856;2024-02-23T06:35:08;94199.28;;;7.14;69.40
85735;BME280;76179;42.316;22.856;2024-02-23T06:37:34;94196.13;;;7.19;69.27
85735;BME280;76179;42.316;22.856;2024-02-23T06:39:59;94199.78;;;7.29;68.90
85735;BME280;76179;42.316;22.856;2024-02-23T06:42:25;94194.75;;;7.31;68.25
85735;BME280;76179;42.316;22.856;2024-02-23T06:44:50;94180.72;;;7.36;67.57
85735;BME280;76179;42.316;22.856;2024-02-23T06:47:16;94193.78;;;7.41;67.22
85735;BME280;76179;42.316;22.856;2024-02-23T06:49:42;94199.44;;;7.50;68.52
85735;BME280;76179;42.316;22.856;2024-02-23T06:52:08;94200.88;;;7.55;67.76
85735;BME280;76179;42.316;22.856;2024-02-23T06:54:33;94188.78;;;7.59;67.48
85735;BME280;76179;42.316;22.856;2024-02-23T06:56:59;94191.25;;;7.73;66.29
85735;BME280;76179;42.316;22.856;2024-02-23T06:59:25;94193.09;;;7.77;66.06
85735;BME280;76179;42.316;22.856;2024-02-23T07:01:51;94190.97;;;7.88;65.70
85735;BME280;76179;42.316;22.856;2024-02-23T07:04:17;94180.94;;;8.04;64.76
85735;BME280;76179;42.316;22.856;2024-02-23T07:06:43;94183.91;;;8.10;64.69
85735;BME280;76179;42.316;22.856;2024-02-23T07:09:09;94194.31;;;8.31;64.94
85735;BME280;76179;42.316;22.856;2024-02-23T07:11:36;94186.19;;;8.31;64.01
85735;BME280;76179;42.316;22.856;2024-02-23T07:14:02;94195.63;;;8.43;64.44
85735;BME280;76179;42.316;22.856;2024-02-23T07:16:28;94186.91;;;8.52;63.97
85735;BME280;76179;42.316;22.856;2024-02-23T07:18:54;94194.03;;;8.62;63.37
85735;BME280;76179;42.316;22.856;2024-02-23T07:21:20;94192.28;;;8.71;63.10
85735;BME280;76179;42.316;22.856;2024-02-23T07:23:45;94193.38;;;8.74;63.64
85735;BME280;76179;42.316;22.856;2024-02-23T07:26:11;94191.56;;;8.83;62.39
85735;BME280;76179;42.316;22.856;2024-02-23T07:28:36;94188.72;;;8.74;62.63
85735;BME280;76179;42.316;22.856;2024-02-23T07:31:02;94190.56;;;8.77;63.15
85735;BME280;76179;42.316;22.856;2024-02-23T07:33:27;94196.34;;;8.96;62.44
85735;BME280;76179;42.316;22.856;2024-02-23T07:35:52;94201.69;;;8.99;62.99
85735;BME280;76179;42.316;22.856;2024-02-23T07:38:18;94200.00;;;9.05;62.07
85735;BME280;76179;42.316;22.856;2024-02-23T07:40:44;94192.34;;;9.16;61.76
85735;BME280;76179;42.316;22.856;2024-02-23T07:43:09;94194.69;;;9.31;61.79
85735;BME280;76179;42.316;22.856;2024-02-23T07:45:38;94188.59;;;9.26;61.22
85735;BME280;76179;42.316;22.856;2024-02-23T07:48:04;94189.25;;;9.31;61.05
85735;BME280;76179;42.316;22.856;2024-02-23T07:50:29;94193.91;;;9.46;61.22
85735;BME280;76179;42.316;22.856;2024-02-23T07:52:55;94176.31;;;9.51;60.98
85735;BME280;76179;42.316;22.856;2024-02-23T07:55:20;94179.66;;;9.71;60.43
85735;BME280;76179;42.316;22.856;2024-02-23T07:57:46;94184.59;;;9.89;60.06
85735;BME280;76179;42.316;22.856;2024-02-23T08:00:11;94173.19;;;9.94;60.05
85735;BME280;76179;42.316;22.856;2024-02-23T08:02:38;94181.63;;;10.12;60.08
85735;BME280;76179;42.316;22.856;2024-02-23T08:05:03;94172.56;;;10.15;59.03
85735;BME280;76179;42.316;22.856;2024-02-23T08:10:49;94171.66;;;10.47;58.67
85735;BME280;76179;42.316;22.856;2024-02-23T08:13:14;94180.28;;;10.58;58.64
85735;BME280;76179;42.316;22.856;2024-02-23T08:15:40;94174.59;;;10.65;58.00
85735;BME280;76179;42.316;22.856;2024-02-23T08:18:05;94171.44;;;10.67;57.39
85735;BME280;76179;42.316;22.856;2024-02-23T08:20:31;94183.41;;;10.82;57.68
85735;BME280;76179;42.316;22.856;2024-02-23T08:22:56;94176.75;;;10.96;56.41
85735;BME280;76179;42.316;22.856;2024-02-23T08:25:22;94177.91;;;11.07;56.32
85735;BME280;76179;42.316;22.856;2024-02-23T08:27:47;94182.69;;;11.16;55.46
85735;BME280;76179;42.316;22.856;2024-02-23T08:30:14;94178.91;;;11.13;55.96
85735;BME280;76179;42.316;22.856;2024-02-23T08:32:40;94193.25;;;11.27;55.67
85735;BME280;76179;42.316;22.856;2024-02-23T08:35:06;94180.72;;;11.29;55.66
85735;BME280;76179;42.316;22.856;2024-02-23T08:37:32;94174.38;;;11.32;54.22
85735;BME280;76179;42.316;22.856;2024-02-23T08:39:57;94181.13;;;11.40;54.94
85735;BME280;76179;42.316;22.856;2024-02-23T08:42:23;94184.59;;;11.53;54.10
85735;BME280;76179;42.316;22.856;2024-02-23T08:44:48;94185.41;;;11.63;54.31
85735;BME280;76179;42.316;22.856;2024-02-23T08:47:13;94186.25;;;11.73;53.94
85735;BME280;76179;42.316;22.856;2024-02-23T08:49:39;94176.66;;;11.68;53.85
85735;BME280;76179;42.316;22.856;2024-02-23T08:52:04;94180.38;;;11.74;53.16
85735;BME280;76179;42.316;22.856;2024-02-23T08:54:30;94186.25;;;11.73;54.71
85735;BME280;76179;42.316;22.856;2024-02-23T08:56:55;94193.78;;;11.69;54.52
85735;BME280;76179;42.316;22.856;2024-02-23T08:59:21;94187.13;;;11.70;54.16
85735;BME280;76179;42.316;22.856;2024-02-23T09:01:46;94192.81;;;11.63;54.73
85735;BME280;76179;42.316;22.856;2024-02-23T09:04:12;94187.34;;;11.75;54.34
85735;BME280;76179;42.316;22.856;2024-02-23T09:06:38;94190.41;;;11.99;52.96
85735;BME280;76179;42.316;22.856;2024-02-23T09:09:03;94179.78;;;12.01;53.00
85735;BME280;76179;42.316;22.856;2024-02-23T09:11:28;94185.25;;;12.01;53.16
85735;BME280;76179;42.316;22.856;2024-02-23T09:13:54;94183.63;;;12.04;52.96
85735;BME280;76179;42.316;22.856;2024-02-23T09:16:19;94178.06;;;12.16;52.64
85735;BME280;76179;42.316;22.856;2024-02-23T09:18:47;94182.13;;;12.33;50.97
85735;BME280;76179;42.316;22.856;2024-02-23T09:21:12;94176.59;;;12.55;50.58
85735;BME280;76179;42.316;22.856;2024-02-23T09:23:38;94179.81;;;12.54;50.27
85735;BME280;76179;42.316;22.856;2024-02-23T09:26:08;94179.50;;;12.52;51.33
85735;BME280;76179;42.316;22.856;2024-02-23T09:28:34;94176.50;;;12.59;51.69
85735;BME280;76179;42.316;22.856;2024-02-23T09:30:59;94173.66;;;12.71;49.63
85735;BME280;76179;42.316;22.856;2024-02-23T09:33:25;94174.28;;;12.76;50.57
85735;BME280;76179;42.316;22.856;2024-02-23T09:35:50;94165.50;;;12.81;50.07
85735;BME280;76179;42.316;22.856;2024-02-23T09:38:15;94166.59;;;12.92;49.02
85735;BME280;76179;42.316;22.856;2024-02-23T09:40:41;94165.41;;;13.02;49.15
85735;BME280;76179;42.316;22.856;2024-02-23T09:43:07;94159.53;;;13.13;49.45
85735;BME280;76179;42.316;22.856;2024-02-23T09:45:33;94157.53;;;13.04;50.04
85735;BME280;76179;42.316;22.856;2024-02-23T09:48:00;94165.84;;;12.92;49.29
85735;BME280;76179;42.316;22.856;2024-02-23T09:50:29;94160.69;;;13.03;49.50
85735;BME280;76179;42.316;22.856;2024-02-23T09:52:56;94156.66;;;13.17;49.42
85735;BME280;76179;42.316;22.856;2024-02-23T09:55:23;94136.78;;;13.25;48.25
85735;BME280;76179;42.316;22.856;2024-02-23T09:57:51;94148.03;;;13.36;46.81
85735;BME280;76179;42.316;22.856;2024-02-23T10:00:20;94158.06;;;13.48;46.51
85735;BME280;76179;42.316;22.856;2024-02-23T10:02:46;94160.31;;;13.32;48.01
85735;BME280;76179;42.316;22.856;2024-02-23T10:05:12;94153.94;;;13.26;47.52
85735;BME280;76179;42.316;22.856;2024-02-23T10:07:38;94156.53;;;13.47;47.87
85735;BME280;76179;42.316;22.856;2024-02-23T10:10:08;94152.59;;;13.48;48.36
85735;BME280;76179;42.316;22.856;2024-02-23T10:12:34;94148.97;;;13.61;47.47
85735;BME280;76179;42.316;22.856;2024-02-23T10:15:00;94140.91;;;13.75;47.16
85735;BME280;76179;42.316;22.856;2024-02-23T10:17:32;94148.03;;;14.00;46.47
85735;BME280;76179;42.316;22.856;2024-02-23T10:19:59;94151.34;;;14.04;46.93
85735;BME280;76179;42.316;22.856;2024-02-23T10:22:24;94137.53;;;13.99;46.49
85735;BME280;76179;42.316;22.856;2024-02-23T10:24:50;94132.97;;;14.05;45.01
85735;BME280;76179;42.316;22.856;2024-02-23T10:27:16;94137.78;;;14.19;46.60
85735;BME280;76179;42.316;22.856;2024-02-23T10:29:42;94136.25;;;14.27;46.68
85735;BME280;76179;42.316;22.856;2024-02-23T10:32:10;94127.28;;;14.26;46.39
85735;BME280;76179;42.316;22.856;2024-02-23T10:34:42;94129.53;;;14.37;45.58
85735;BME280;76179;42.316;22.856;2024-02-23T10:37:07;94126.25;;;14.15;45.67
85735;BME280;76179;42.316;22.856;2024-02-23T10:39:36;94135.81;;;14.19;44.99
85735;BME280;76179;42.316;22.856;2024-02-23T10:42:04;94125.66;;;14.11;46.25
85735;BME280;76179;42.316;22.856;2024-02-23T10:44:30;94136.88;;;14.22;42.18
85735;BME280;76179;42.316;22.856;2024-02-23T10:46:58;94116.25;;;14.63;43.24
85735;BME280;76179;42.316;22.856;2024-02-23T10:49:24;94118.91;;;15.05;40.38
85735;BME280;76179;42.316;22.856;2024-02-23T10:51:53;94113.78;;;15.22;38.55
85735;BME280;76179;42.316;22.856;2024-02-23T10:54:19;94105.91;;;15.38;38.44
85735;BME280;76179;42.316;22.856;2024-02-23T10:56:47;94106.09;;;15.73;37.91
85735;BME280;76179;42.316;22.856;2024-02-23T10:59:12;94100.44;;;15.77;37.35
85735;BME280;76179;42.316;22.856;2024-02-23T11:01:38;94101.78;;;15.58;36.78
85735;BME280;76179;42.316;22.856;2024-02-23T11:04:06;94104.38;;;15.37;36.60
85735;BME280;76179;42.316;22.856;2024-02-23T11:06:34;94121.53;;;15.47;37.23
85735;BME280;76179;42.316;22.856;2024-02-23T11:09:13;94108.66;;;15.77;37.75
85735;BME280;76179;42.316;22.856;2024-02-23T11:11:38;94095.09;;;15.73;36.49
85735;BME280;76179;42.316;22.856;2024-02-23T11:14:07;94094.31;;;15.58;37.60
85735;BME280;76179;42.316;22.856;2024-02-23T11:16:38;94092.75;;;15.81;36.67
85735;BME280;76179;42.316;22.856;2024-02-23T11:19:05;94093.44;;;16.05;37.40
85735;BME280;76179;42.316;22.856;2024-02-23T11:21:35;94094.09;;;16.30;36.97
85735;BME280;76179;42.316;22.856;2024-02-23T11:24:05;94093.13;;;16.47;36.61
85735;BME280;76179;42.316;22.856;2024-02-23T11:26:31;94093.75;;;16.57;35.31
85735;BME280;76179;42.316;22.856;2024-02-23T11:29:09;94092.16;;;16.50;35.42
85735;BME280;76179;42.316;22.856;2024-02-23T11:31:35;94088.88;;;16.61;34.82
85735;BME280;76179;42.316;22.856;2024-02-23T11:34:00;94097.78;;;16.56;35.77
85735;BME280;76179;42.316;22.856;2024-02-23T11:36:31;94075.03;;;16.55;34.46
85735;BME280;76179;42.316;22.856;2024-02-23T11:38:58;94089.78;;;16.73;35.37
85735;BME280;76179;42.316;22.856;2024-02-23T11:41:25;94084.28;;;16.73;34.20
85735;BME280;76179;42.316;22.856;2024-02-23T11:43:51;94085.19;;;16.64;34.53
85735;BME280;76179;42.316;22.856;2024-02-23T11:46:17;94087.44;;;16.51;34.43
85735;BME280;76179;42.316;22.856;2024-02-23T11:48:43;94074.66;;;16.48;34.38
85735;BME280;76179;42.316;22.856;2024-02-23T11:51:13;94070.59;;;16.43;34.33
85735;BME280;76179;42.316;22.856;2024-02-23T11:53:39;94069.31;;;16.74;33.80
85735;BME280;76179;42.316;22.856;2024-02-23T11:56:05;94080.34;;;16.44;34.28
85735;BME280;76179;42.316;22.856;2024-02-23T11:58:34;94073.34;;;16.43;34.49
85735;BME280;76179;42.316;22.856;2024-02-23T12:01:01;94071.72;;;16.51;33.09
85735;BME280;76179;42.316;22.856;2024-02-23T12:03:28;94057.50;;;16.53;33.88
85735;BME280;76179;42.316;22.856;2024-02-23T12:05:56;94063.75;;;16.53;33.78
85735;BME280;76179;42.316;22.856;2024-02-23T12:08:22;94058.09;;;16.28;33.66
85735;BME280;76179;42.316;22.856;2024-02-23T12:10:49;94061.13;;;16.44;33.91
85735;BME280;76179;42.316;22.856;2024-02-23T12:13:14;94053.63;;;16.45;33.42
85735;BME280;76179;42.316;22.856;2024-02-23T12:15:39;94060.56;;;15.96;34.45
85735;BME280;76179;42.316;22.856;2024-02-23T12:18:05;94051.56;;;15.66;35.29
85735;BME280;76179;42.316;22.856;2024-02-23T12:20:33;94054.63;;;15.83;33.32
85735;BME280;76179;42.316;22.856;2024-02-23T12:23:00;94053.09;;;16.26;32.85
85735;BME280;76179;42.316;22.856;2024-02-23T12:25:26;94045.59;;;16.41;32.32
85735;BME280;76179;42.316;22.856;2024-02-23T12:27:56;94051.16;;;16.47;33.73
85735;BME280;76179;42.316;22.856;2024-02-23T12:30:22;94041.78;;;16.88;31.69
85735;BME280;76179;42.316;22.856;2024-02-23T12:32:48;94033.84;;;16.41;31.49
85735;BME280;76179;42.316;22.856;2024-02-23T12:35:14;94036.53;;;16.21;31.68
85735;BME280;76179;42.316;22.856;2024-02-23T12:37:40;94029.69;;;16.31;31.85
85735;BME280;76179;42.316;22.856;2024-02-23T12:40:07;94025.28;;;16.53;32.01
85735;BME280;76179;42.316;22.856;2024-02-23T12:42:32;94028.78;;;16.69;31.21
85735;BME280;76179;42.316;22.856;2024-02-23T12:44:58;94035.97;;;17.01;30.87
85735;BME280;76179;42.316;22.856;2024-02-23T12:47:23;94032.88;;;17.34;28.94
85735;BME280;76179;42.316;22.856;2024-02-23T12:49:49;94043.94;;;17.86;31.65
85735;BME280;76179;42.316;22.856;2024-02-23T12:52:14;94030.84;;;18.06;29.78
85735;BME280;76179;42.316;22.856;2024-02-23T12:54:40;94027.41;;;18.12;27.91